createdAt,value
2023-03-03T16:21:59.541Z,32.15
2023-03-03T16:24:27.011Z,33.25
2023-03-03T16:27:01.152Z,34.10
2023-03-03T16:29:47.349Z,34.25
2023-03-03T16:32:17.791Z,34.17
2023-03-03T16:34:48.886Z,35.05
2023-03-03T16:37:16.576Z,32.05
2023-03-03T16:40:02.381Z,32.13
2023-03-03T16:42:31.553Z,32.40
2023-03-03T16:45:08.061Z,33.30
2023-03-03T16:47:47.794Z,32.35
2023-03-03T16:50:33.950Z,34.10
2023-03-03T16:53:19.689Z,33.17
2023-03-03T16:58:29.124Z,31.45
2023-03-03T17:01:06.169Z,31.30
2023-03-03T17:03:33.667Z,31.63
2023-03-03T17:06:19.514Z,32.30
2023-03-03T17:09:05.103Z,32.55
2023-03-03T17:11:44.320Z,32.17
2023-03-03T17:14:22.044Z,33.33
2023-03-03T17:16:58.113Z,33.50
2023-03-03T17:19:48.866Z,34.50
2023-03-03T17:22:28.450Z,35.20
2023-03-03T17:24:56.043Z,34.83
2023-03-03T17:27:26.632Z,35.58
2023-03-03T17:30:07.918Z,36.00
2023-03-03T17:32:38.587Z,38.42
2023-03-03T17:35:08.858Z,38.47
2023-03-03T17:37:58.940Z,37.75
2023-03-03T17:40:51.909Z,37.88
2023-03-03T17:43:42.150Z,38.22
2023-03-03T17:46:18.786Z,37.40
2023-03-03T17:49:04.792Z,38.05
2023-03-03T17:51:50.701Z,38.70
2023-03-03T17:54:19.208Z,40.17
2023-03-03T17:57:05.561Z,40.83
2023-03-03T17:59:45.492Z,39.72
2023-03-03T18:02:38.291Z,40.50
2023-03-03T18:05:15.087Z,39.25
2023-03-03T18:07:47.371Z,38.15
2023-03-03T18:10:17.530Z,39.88
2023-03-03T18:12:54.005Z,37.60
2023-03-03T18:15:33.566Z,38.35
2023-03-03T18:18:16.395Z,37.95
2023-03-03T18:20:53.206Z,39.75
2023-03-03T18:23:23.710Z,39.45
2023-03-03T18:26:01.493Z,39.35
2023-03-03T18:28:46.385Z,38.45
2023-03-03T18:31:27.354Z,41.13
2023-03-03T18:34:13.421Z,39.50
2023-03-03T18:36:52.912Z,38.40
2023-03-03T18:39:36.650Z,39.72
2023-03-03T18:42:05.689Z,41.22
2023-03-03T18:44:33.204Z,41.25
2023-03-03T18:47:00.691Z,41.55
2023-03-03T18:49:57.629Z,40.55
2023-03-03T18:52:26.912Z,42.80
2023-03-03T18:55:03.224Z,42.35
2023-03-03T18:57:30.900Z,41.88
2023-03-03T19:00:09.445Z,42.17
2023-03-03T19:02:42.410Z,41.22
2023-03-03T19:05:19.123Z,42.17
2023-03-03T19:08:01.869Z,43.45
2023-03-03T19:10:41.423Z,44.58
2023-03-03T19:13:27.776Z,44.80
2023-03-03T19:15:56.763Z,41.47
2023-03-03T19:18:28.485Z,43.00
2023-03-03T19:21:05.103Z,43.47
2023-03-03T19:23:53.358Z,42.70
2023-03-03T19:26:30.034Z,41.80
2023-03-03T19:29:03.702Z,43.65
2023-03-03T19:31:37.311Z,43.33
2023-03-03T19:34:11.162Z,41.10
2023-03-03T19:36:39.417Z,41.45
2023-03-03T19:39:15.881Z,42.20
2023-03-03T19:42:01.635Z,42.28
2023-03-03T19:46:59.198Z,41.67
2023-03-03T19:49:46.966Z,41.83
2023-03-03T19:52:24.753Z,41.30
2023-03-03T19:54:58.060Z,42.70
2023-03-03T19:57:34.658Z,42.05
2023-03-03T20:00:08.264Z,41.38
2023-03-03T20:02:46.308Z,40.30
2023-03-03T20:05:33.210Z,41.90
2023-03-03T20:08:06.874Z,41.22
2023-03-03T20:10:53.234Z,41.25
2023-03-03T20:13:39.001Z,41.40
2023-03-03T20:18:44.486Z,39.60
2023-03-03T20:21:18.243Z,42.28
2023-03-03T20:24:08.994Z,41.17
2023-03-03T20:26:54.951Z,40.83
2023-03-03T20:29:40.958Z,39.63
2023-03-03T20:32:08.476Z,39.88
2023-03-03T20:34:56.105Z,42.05
2023-03-03T20:37:32.139Z,39.92
2023-03-03T20:40:08.666Z,40.13
2023-03-03T20:42:39.339Z,39.38
2023-03-03T20:45:10.839Z,39.28
2023-03-03T20:47:48.181Z,41.00
2023-03-03T20:50:18.528Z,40.80
2023-03-03T20:52:59.965Z,42.25
2023-03-03T20:55:53.292Z,41.47
2023-03-03T20:58:23.813Z,41.45
2023-03-03T21:01:08.645Z,40.70
2023-03-03T21:03:44.807Z,41.95
2023-03-03T21:06:17.799Z,42.25
2023-03-03T21:08:45.292Z,42.17
2023-03-03T21:11:14.736Z,41.55
2023-03-03T21:13:44.198Z,42.20
2023-03-03T21:16:11.674Z,42.63
2023-03-03T21:18:39.752Z,43.00
2023-03-03T21:21:07.500Z,42.78
2023-03-03T21:23:34.990Z,41.65
2023-03-03T21:26:02.400Z,42.05
2023-03-03T21:28:34.100Z,40.50
2023-03-03T21:31:04.348Z,42.03
2023-03-03T21:33:45.290Z,42.75
2023-03-03T21:36:13.884Z,41.75
2023-03-03T21:38:41.482Z,44.35
2023-03-03T21:41:09.325Z,42.17
2023-03-03T21:43:44.303Z,41.70
2023-03-03T21:46:12.643Z,42.75
2023-03-03T21:48:43.592Z,42.60
2023-03-03T21:51:14.100Z,40.95
2023-03-03T21:53:42.332Z,40.47
2023-03-03T21:56:09.780Z,41.20
2023-03-03T21:58:38.059Z,42.58
2023-03-03T22:01:06.678Z,42.08
2023-03-03T22:03:34.707Z,42.63
2023-03-03T22:06:02.854Z,41.78
2023-03-03T22:08:30.401Z,42.25
2023-03-03T22:10:57.896Z,42.50
2023-03-03T22:13:26.332Z,44.25
2023-03-03T22:15:53.793Z,42.40
2023-03-03T22:18:21.621Z,43.28
2023-03-03T22:20:50.658Z,42.25
2023-03-03T22:23:19.187Z,42.45
2023-03-03T22:25:47.920Z,42.15
2023-03-03T22:28:15.610Z,44.83
2023-03-03T22:30:43.000Z,42.55
2023-03-03T22:33:10.448Z,41.42
2023-03-03T22:35:37.889Z,42.65
2023-03-03T22:38:05.588Z,41.97
2023-03-03T22:40:33.727Z,41.33
2023-03-03T22:43:01.259Z,43.35
2023-03-03T22:45:28.668Z,42.80
2023-03-03T22:47:56.160Z,41.95
2023-03-03T22:50:23.546Z,40.97
2023-03-03T22:52:51.067Z,40.65
2023-03-03T22:55:18.520Z,41.35
2023-03-03T22:57:45.920Z,40.22
2023-03-03T23:00:13.576Z,42.38
2023-03-03T23:02:41.112Z,42.13
2023-03-03T23:05:10.937Z,41.00
2023-03-03T23:07:40.201Z,42.70
2023-03-03T23:10:08.054Z,43.40
2023-03-03T23:12:35.612Z,40.92
2023-03-03T23:15:04.450Z,42.78
2023-03-03T23:17:32.056Z,41.42
2023-03-03T23:19:59.549Z,42.20
2023-03-03T23:22:27.038Z,44.50
2023-03-03T23:24:54.397Z,42.65
2023-03-03T23:27:22.058Z,43.00
2023-03-03T23:29:49.893Z,41.78
2023-03-03T23:32:17.388Z,42.60
2023-03-03T23:34:44.816Z,44.83
2023-03-03T23:37:12.291Z,44.15
2023-03-03T23:39:41.054Z,43.33
2023-03-03T23:42:08.551Z,44.45
2023-03-03T23:44:37.634Z,44.97
2023-03-03T23:47:05.613Z,43.75
2023-03-03T23:49:33.322Z,46.70
2023-03-03T23:52:00.783Z,45.88
2023-03-03T23:54:28.239Z,42.25
2023-03-03T23:56:55.831Z,44.47
2023-03-03T23:59:23.190Z,42.72
